<?xml version="1.0" encoding="UTF-8" standalone="no" ?>
<gpx xmlns="http://www.topografix.com/GPX/1/1" xmlns:xsi="http://www.w3.org/2001/XMLSchema-instance" xsi:schemaLocation="http://www.topografix.com/GPX/1/1 http://www.topografix.com/GPX/1/1/gpx.xsd" version="1.1" creator="VisuGPX - https://www.visugpx.com">
  <metadata>
    <name>Rado Gorges de l\'Orbe</name>
    <desc><![CDATA[Randonnée dans les gorges de l\'orbe
                                                             ]]></desc>
  </metadata>
  <trk>
    <name><![CDATA[ACTIVE LOG 005]]></name>
    <trkseg>
      <trkpt lat="46.71437" lon="6.38059">
        <ele>686.0380859</ele>
        <time>2011-10-02T08:21:37Z</time>
      </trkpt>
      <trkpt lat="46.71436" lon="6.38063">
        <ele>786.0151367</ele>
        <time>2011-10-02T08:24:37Z</time>
      </trkpt>
      <trkpt lat="46.71437" lon="6.38064">
        <ele>786.0151367</ele>
        <time>2011-10-02T08:25:36Z</time>
      </trkpt>
      <trkpt lat="46.71436" lon="6.38063">
        <ele>786.9763184</ele>
        <time>2011-10-02T08:26:14Z</time>
      </trkpt>
      <trkpt lat="46.71412" lon="6.38054">
        <ele>786.0151367</ele>
        <time>2011-10-02T08:26:42Z</time>
      </trkpt>
      <trkpt lat="46.71401" lon="6.38043">
        <ele>785.5344238</ele>
        <time>2011-10-02T08:26:54Z</time>
      </trkpt>
      <trkpt lat="46.71393" lon="6.38047">
        <ele>783.6118164</ele>
        <time>2011-10-02T08:27:02Z</time>
      </trkpt>
      <trkpt lat="46.7139" lon="6.38045">
        <ele>788.418457</ele>
        <time>2011-10-02T08:27:04Z</time>
      </trkpt>
      <trkpt lat="46.71389" lon="6.38044">
        <ele>785.0539551</ele>
        <time>2011-10-02T08:27:05Z</time>
      </trkpt>
      <trkpt lat="46.7138" lon="6.38034">
        <ele>784.0925293</ele>
        <time>2011-10-02T08:27:16Z</time>
      </trkpt>
      <trkpt lat="46.71363" lon="6.38025">
        <ele>782.1699219</ele>
        <time>2011-10-02T08:27:32Z</time>
      </trkpt>
      <trkpt lat="46.71348" lon="6.38023">
        <ele>781.2087402</ele>
        <time>2011-10-02T08:27:45Z</time>
      </trkpt>
      <trkpt lat="46.71296" lon="6.38121">
        <ele>773.9985352</ele>
        <time>2011-10-02T08:28:58Z</time>
      </trkpt>
      <trkpt lat="46.71404" lon="6.38384">
        <ele>765.8276367</ele>
        <time>2011-10-02T08:32:28Z</time>
      </trkpt>
      <trkpt lat="46.71369" lon="6.38313">
        <ele>767.2695313</ele>
        <time>2011-10-02T08:33:34Z</time>
      </trkpt>
      <trkpt lat="46.71227" lon="6.38338">
        <ele>763.904541</ele>
        <time>2011-10-02T08:35:51Z</time>
      </trkpt>
      <trkpt lat="46.71222" lon="6.38372">
        <ele>759.0981445</ele>
        <time>2011-10-02T08:36:16Z</time>
      </trkpt>
      <trkpt lat="46.71254" lon="6.38486">
        <ele>751.4077148</ele>
        <time>2011-10-02T08:37:48Z</time>
      </trkpt>
      <trkpt lat="46.71269" lon="6.3849">
        <ele>751.8884277</ele>
        <time>2011-10-02T08:38:35Z</time>
      </trkpt>
      <trkpt lat="46.71272" lon="6.38556">
        <ele>751.8884277</ele>
        <time>2011-10-02T08:39:26Z</time>
      </trkpt>
      <trkpt lat="46.71305" lon="6.38587">
        <ele>753.8110352</ele>
        <time>2011-10-02T08:39:58Z</time>
      </trkpt>
      <trkpt lat="46.71316" lon="6.3859">
        <ele>753.3303223</ele>
        <time>2011-10-02T08:40:15Z</time>
      </trkpt>
      <trkpt lat="46.71191" lon="6.38531">
        <ele>762.9433594</ele>
        <time>2011-10-02T08:42:22Z</time>
      </trkpt>
      <trkpt lat="46.71302" lon="6.38691">
        <ele>761.5014648</ele>
        <time>2011-10-02T08:44:49Z</time>
      </trkpt>
      <trkpt lat="46.714" lon="6.39004">
        <ele>761.020752</ele>
        <time>2011-10-02T08:48:15Z</time>
      </trkpt>
      <trkpt lat="46.71468" lon="6.38982">
        <ele>756.6948242</ele>
        <time>2011-10-02T08:49:32Z</time>
      </trkpt>
      <trkpt lat="46.71641" lon="6.3914">
        <ele>754.291748</ele>
        <time>2011-10-02T08:52:58Z</time>
      </trkpt>
      <trkpt lat="46.71694" lon="6.39162">
        <ele>750.927002</ele>
        <time>2011-10-02T08:54:16Z</time>
      </trkpt>
      <trkpt lat="46.71767" lon="6.39111">
        <ele>745.6396484</ele>
        <time>2011-10-02T08:55:28Z</time>
      </trkpt>
      <trkpt lat="46.71786" lon="6.39125">
        <ele>746.1203613</ele>
        <time>2011-10-02T08:55:49Z</time>
      </trkpt>
      <trkpt lat="46.71811" lon="6.39173">
        <ele>748.5236816</ele>
        <time>2011-10-02T08:56:32Z</time>
      </trkpt>
      <trkpt lat="46.71909" lon="6.39308">
        <ele>749.0043945</ele>
        <time>2011-10-02T08:59:22Z</time>
      </trkpt>
      <trkpt lat="46.71931" lon="6.39347">
        <ele>749.0043945</ele>
        <time>2011-10-02T08:59:46Z</time>
      </trkpt>
      <trkpt lat="46.71944" lon="6.39367">
        <ele>746.6010742</ele>
        <time>2011-10-02T08:59:59Z</time>
      </trkpt>
      <trkpt lat="46.71977" lon="6.39396">
        <ele>744.1977539</ele>
        <time>2011-10-02T09:00:31Z</time>
      </trkpt>
      <trkpt lat="46.71989" lon="6.39432">
        <ele>747.5622559</ele>
        <time>2011-10-02T09:00:59Z</time>
      </trkpt>
      <trkpt lat="46.72008" lon="6.39457">
        <ele>746.1203613</ele>
        <time>2011-10-02T09:01:17Z</time>
      </trkpt>
      <trkpt lat="46.7214" lon="6.39505">
        <ele>749.0043945</ele>
        <time>2011-10-02T09:03:26Z</time>
      </trkpt>
      <trkpt lat="46.72166" lon="6.39557">
        <ele>761.020752</ele>
        <time>2011-10-02T09:04:46Z</time>
      </trkpt>
      <trkpt lat="46.72158" lon="6.3957">
        <ele>766.3081055</ele>
        <time>2011-10-02T09:05:25Z</time>
      </trkpt>
      <trkpt lat="46.7216" lon="6.39606">
        <ele>769.6728516</ele>
        <time>2011-10-02T09:06:02Z</time>
      </trkpt>
      <trkpt lat="46.72181" lon="6.39616">
        <ele>774.479248</ele>
        <time>2011-10-02T09:06:40Z</time>
      </trkpt>
      <trkpt lat="46.7221" lon="6.39685">
        <ele>778.8051758</ele>
        <time>2011-10-02T09:08:22Z</time>
      </trkpt>
      <trkpt lat="46.72179" lon="6.3974">
        <ele>784.5732422</ele>
        <time>2011-10-02T09:09:19Z</time>
      </trkpt>
      <trkpt lat="46.72199" lon="6.39684">
        <ele>785.0539551</ele>
        <time>2011-10-02T09:10:40Z</time>
      </trkpt>
      <trkpt lat="46.72285" lon="6.39491">
        <ele>784.5732422</ele>
        <time>2011-10-02T09:13:35Z</time>
      </trkpt>
      <trkpt lat="46.72292" lon="6.39512">
        <ele>779.7663574</ele>
        <time>2011-10-02T09:14:04Z</time>
      </trkpt>
      <trkpt lat="46.72287" lon="6.39526">
        <ele>777.3632813</ele>
        <time>2011-10-02T09:18:04Z</time>
      </trkpt>
      <trkpt lat="46.7225" lon="6.39515">
        <ele>765.8276367</ele>
        <time>2011-10-02T09:19:09Z</time>
      </trkpt>
      <trkpt lat="46.72238" lon="6.39522">
        <ele>760.5400391</ele>
        <time>2011-10-02T09:19:41Z</time>
      </trkpt>
      <trkpt lat="46.72225" lon="6.39518">
        <ele>751.4077148</ele>
        <time>2011-10-02T09:21:11Z</time>
      </trkpt>
      <trkpt lat="46.72254" lon="6.39558">
        <ele>748.0432129</ele>
        <time>2011-10-02T09:22:00Z</time>
      </trkpt>
      <trkpt lat="46.72252" lon="6.39594">
        <ele>746.1203613</ele>
        <time>2011-10-02T09:22:26Z</time>
      </trkpt>
      <trkpt lat="46.72284" lon="6.39626">
        <ele>745.1589355</ele>
        <time>2011-10-02T09:22:50Z</time>
      </trkpt>
      <trkpt lat="46.72319" lon="6.39691">
        <ele>744.1977539</ele>
        <time>2011-10-02T09:23:44Z</time>
      </trkpt>
      <trkpt lat="46.72316" lon="6.39712">
        <ele>743.717041</ele>
        <time>2011-10-02T09:24:02Z</time>
      </trkpt>
      <trkpt lat="46.72281" lon="6.39732">
        <ele>744.1977539</ele>
        <time>2011-10-02T09:24:56Z</time>
      </trkpt>
      <trkpt lat="46.7227" lon="6.39768">
        <ele>744.6782227</ele>
        <time>2011-10-02T09:25:11Z</time>
      </trkpt>
      <trkpt lat="46.7226" lon="6.39798">
        <ele>744.6782227</ele>
        <time>2011-10-02T09:25:25Z</time>
      </trkpt>
      <trkpt lat="46.7227" lon="6.39827">
        <ele>745.1589355</ele>
        <time>2011-10-02T09:25:55Z</time>
      </trkpt>
      <trkpt lat="46.72243" lon="6.39902">
        <ele>746.1203613</ele>
        <time>2011-10-02T09:26:37Z</time>
      </trkpt>
      <trkpt lat="46.72264" lon="6.3993">
        <ele>746.1203613</ele>
        <time>2011-10-02T09:26:51Z</time>
      </trkpt>
      <trkpt lat="46.72259" lon="6.39953">
        <ele>746.6010742</ele>
        <time>2011-10-02T09:27:04Z</time>
      </trkpt>
      <trkpt lat="46.72252" lon="6.39998">
        <ele>746.6010742</ele>
        <time>2011-10-02T09:27:34Z</time>
      </trkpt>
      <trkpt lat="46.72265" lon="6.40092">
        <ele>745.6396484</ele>
        <time>2011-10-02T09:28:31Z</time>
      </trkpt>
      <trkpt lat="46.72286" lon="6.40192">
        <ele>744.1977539</ele>
        <time>2011-10-02T09:29:39Z</time>
      </trkpt>
      <trkpt lat="46.72217" lon="6.40237">
        <ele>743.717041</ele>
        <time>2011-10-02T09:30:56Z</time>
      </trkpt>
      <trkpt lat="46.72216" lon="6.40218">
        <ele>744.6782227</ele>
        <time>2011-10-02T09:31:11Z</time>
      </trkpt>
      <trkpt lat="46.72213" lon="6.40196">
        <ele>745.6396484</ele>
        <time>2011-10-02T09:31:34Z</time>
      </trkpt>
      <trkpt lat="46.72232" lon="6.40233">
        <ele>743.2363281</ele>
        <time>2011-10-02T09:32:54Z</time>
      </trkpt>
      <trkpt lat="46.72287" lon="6.402">
        <ele>742.7558594</ele>
        <time>2011-10-02T09:34:09Z</time>
      </trkpt>
      <trkpt lat="46.72327" lon="6.40388">
        <ele>748.0432129</ele>
        <time>2011-10-02T09:36:30Z</time>
      </trkpt>
      <trkpt lat="46.72311" lon="6.40433">
        <ele>747.5622559</ele>
        <time>2011-10-02T09:37:05Z</time>
      </trkpt>
      <trkpt lat="46.72313" lon="6.40466">
        <ele>742.7558594</ele>
        <time>2011-10-02T09:37:31Z</time>
      </trkpt>
      <trkpt lat="46.72265" lon="6.40501">
        <ele>735.0654297</ele>
        <time>2011-10-02T09:38:16Z</time>
      </trkpt>
      <trkpt lat="46.72243" lon="6.40535">
        <ele>723.0488281</ele>
        <time>2011-10-02T09:39:32Z</time>
      </trkpt>
      <trkpt lat="46.72183" lon="6.40498">
        <ele>706.2255859</ele>
        <time>2011-10-02T09:41:28Z</time>
      </trkpt>
      <trkpt lat="46.72177" lon="6.40536">
        <ele>711.9936523</ele>
        <time>2011-10-02T09:42:07Z</time>
      </trkpt>
      <trkpt lat="46.72169" lon="6.40555">
        <ele>712.4741211</ele>
        <time>2011-10-02T09:42:24Z</time>
      </trkpt>
      <trkpt lat="46.72131" lon="6.40568">
        <ele>709.1096191</ele>
        <time>2011-10-02T09:43:04Z</time>
      </trkpt>
      <trkpt lat="46.72116" lon="6.40572">
        <ele>702.861084</ele>
        <time>2011-10-02T09:43:34Z</time>
      </trkpt>
      <trkpt lat="46.72092" lon="6.40561">
        <ele>698.5349121</ele>
        <time>2011-10-02T09:44:08Z</time>
      </trkpt>
      <trkpt lat="46.7208" lon="6.40601">
        <ele>699.015625</ele>
        <time>2011-10-02T09:45:13Z</time>
      </trkpt>
      <trkpt lat="46.72061" lon="6.40623">
        <ele>695.651123</ele>
        <time>2011-10-02T09:45:46Z</time>
      </trkpt>
      <trkpt lat="46.72025" lon="6.40629">
        <ele>698.5349121</ele>
        <time>2011-10-02T09:46:21Z</time>
      </trkpt>
      <trkpt lat="46.72021" lon="6.40658">
        <ele>691.3251953</ele>
        <time>2011-10-02T09:47:01Z</time>
      </trkpt>
      <trkpt lat="46.71991" lon="6.40697">
        <ele>688.4414063</ele>
        <time>2011-10-02T09:47:37Z</time>
      </trkpt>
      <trkpt lat="46.71972" lon="6.40681">
        <ele>683.6345215</ele>
        <time>2011-10-02T09:48:16Z</time>
      </trkpt>
      <trkpt lat="46.71968" lon="6.40701">
        <ele>683.6345215</ele>
        <time>2011-10-02T09:49:09Z</time>
      </trkpt>
      <trkpt lat="46.71939" lon="6.4069">
        <ele>687.9606934</ele>
        <time>2011-10-02T09:51:15Z</time>
      </trkpt>
      <trkpt lat="46.71993" lon="6.40729">
        <ele>688.4414063</ele>
        <time>2011-10-02T09:52:48Z</time>
      </trkpt>
      <trkpt lat="46.71952" lon="6.40759">
        <ele>684.1154785</ele>
        <time>2011-10-02T09:53:32Z</time>
      </trkpt>
      <trkpt lat="46.7194" lon="6.40783">
        <ele>677.8666992</ele>
        <time>2011-10-02T09:54:12Z</time>
      </trkpt>
      <trkpt lat="46.71911" lon="6.40781">
        <ele>667.7727051</ele>
        <time>2011-10-02T09:55:10Z</time>
      </trkpt>
      <trkpt lat="46.71921" lon="6.40757">
        <ele>664.888916</ele>
        <time>2011-10-02T09:56:07Z</time>
      </trkpt>
      <trkpt lat="46.71905" lon="6.40736">
        <ele>665.8503418</ele>
        <time>2011-10-02T10:20:36Z</time>
      </trkpt>
      <trkpt lat="46.71907" lon="6.40755">
        <ele>668.734375</ele>
        <time>2011-10-02T10:26:20Z</time>
      </trkpt>
      <trkpt lat="46.71883" lon="6.40709">
        <ele>669.6958008</ele>
        <time>2011-10-02T10:28:01Z</time>
      </trkpt>
      <trkpt lat="46.71858" lon="6.40698">
        <ele>669.2150879</ele>
        <time>2011-10-02T10:28:33Z</time>
      </trkpt>
      <trkpt lat="46.71813" lon="6.40709">
        <ele>672.5795898</ele>
        <time>2011-10-02T10:29:23Z</time>
      </trkpt>
      <trkpt lat="46.71782" lon="6.40765">
        <ele>676.9055176</ele>
        <time>2011-10-02T10:30:07Z</time>
      </trkpt>
      <trkpt lat="46.71779" lon="6.40782">
        <ele>675.4633789</ele>
        <time>2011-10-02T10:30:18Z</time>
      </trkpt>
      <trkpt lat="46.71792" lon="6.4082">
        <ele>674.5021973</ele>
        <time>2011-10-02T10:30:49Z</time>
      </trkpt>
      <trkpt lat="46.71881" lon="6.40897">
        <ele>669.6958008</ele>
        <time>2011-10-02T10:31:29Z</time>
      </trkpt>
      <trkpt lat="46.71881" lon="6.40915">
        <ele>666.8115234</ele>
        <time>2011-10-02T10:31:42Z</time>
      </trkpt>
      <trkpt lat="46.71875" lon="6.4091">
        <ele>663.4470215</ele>
        <time>2011-10-02T10:31:58Z</time>
      </trkpt>
      <trkpt lat="46.71824" lon="6.40839">
        <ele>656.2370605</ele>
        <time>2011-10-02T10:32:45Z</time>
      </trkpt>
      <trkpt lat="46.71835" lon="6.40804">
        <ele>655.7565918</ele>
        <time>2011-10-02T10:33:12Z</time>
      </trkpt>
      <trkpt lat="46.7179" lon="6.40735">
        <ele>657.1984863</ele>
        <time>2011-10-02T10:36:19Z</time>
      </trkpt>
      <trkpt lat="46.71834" lon="6.40821">
        <ele>655.7565918</ele>
        <time>2011-10-02T10:39:41Z</time>
      </trkpt>
      <trkpt lat="46.71777" lon="6.40756">
        <ele>653.8339844</ele>
        <time>2011-10-02T10:40:01Z</time>
      </trkpt>
      <trkpt lat="46.71801" lon="6.40831">
        <ele>653.3532715</ele>
        <time>2011-10-02T10:41:32Z</time>
      </trkpt>
      <trkpt lat="46.71841" lon="6.40869">
        <ele>657.1984863</ele>
        <time>2011-10-02T10:42:38Z</time>
      </trkpt>
      <trkpt lat="46.71829" lon="6.41008">
        <ele>648.065918</ele>
        <time>2011-10-02T10:44:40Z</time>
      </trkpt>
      <trkpt lat="46.71845" lon="6.41057">
        <ele>648.5463867</ele>
        <time>2011-10-02T10:45:14Z</time>
      </trkpt>
      <trkpt lat="46.71947" lon="6.41186">
        <ele>646.1433105</ele>
        <time>2011-10-02T10:46:37Z</time>
      </trkpt>
      <trkpt lat="46.71959" lon="6.41325">
        <ele>642.2980957</ele>
        <time>2011-10-02T10:48:37Z</time>
      </trkpt>
      <trkpt lat="46.71946" lon="6.41362">
        <ele>638.9335938</ele>
        <time>2011-10-02T10:49:12Z</time>
      </trkpt>
      <trkpt lat="46.7198" lon="6.41425">
        <ele>636.0495605</ele>
        <time>2011-10-02T10:50:09Z</time>
      </trkpt>
      <trkpt lat="46.71997" lon="6.41431">
        <ele>635.5686035</ele>
        <time>2011-10-02T10:50:28Z</time>
      </trkpt>
      <trkpt lat="46.7203" lon="6.41515">
        <ele>634.6074219</ele>
        <time>2011-10-02T10:51:32Z</time>
      </trkpt>
      <trkpt lat="46.72073" lon="6.41576">
        <ele>634.6074219</ele>
        <time>2011-10-02T10:53:01Z</time>
      </trkpt>
      <trkpt lat="46.72101" lon="6.4163">
        <ele>633.1652832</ele>
        <time>2011-10-02T10:53:40Z</time>
      </trkpt>
      <trkpt lat="46.72143" lon="6.4167">
        <ele>633.6459961</ele>
        <time>2011-10-02T10:54:40Z</time>
      </trkpt>
      <trkpt lat="46.72156" lon="6.41694">
        <ele>633.1652832</ele>
        <time>2011-10-02T10:54:58Z</time>
      </trkpt>
      <trkpt lat="46.7217" lon="6.41736">
        <ele>630.2814941</ele>
        <time>2011-10-02T10:55:26Z</time>
      </trkpt>
      <trkpt lat="46.72158" lon="6.41774">
        <ele>627.8781738</ele>
        <time>2011-10-02T10:56:03Z</time>
      </trkpt>
      <trkpt lat="46.72167" lon="6.41745">
        <ele>628.8395996</ele>
        <time>2011-10-02T10:57:42Z</time>
      </trkpt>
      <trkpt lat="46.72185" lon="6.41759">
        <ele>629.3200684</ele>
        <time>2011-10-02T10:58:00Z</time>
      </trkpt>
      <trkpt lat="46.72203" lon="6.41841">
        <ele>629.3200684</ele>
        <time>2011-10-02T10:58:47Z</time>
      </trkpt>
      <trkpt lat="46.72186" lon="6.41964">
        <ele>628.3588867</ele>
        <time>2011-10-02T11:00:03Z</time>
      </trkpt>
      <trkpt lat="46.72193" lon="6.42073">
        <ele>636.5302734</ele>
        <time>2011-10-02T11:01:40Z</time>
      </trkpt>
      <trkpt lat="46.722" lon="6.42084">
        <ele>636.5302734</ele>
        <time>2011-10-02T11:01:59Z</time>
      </trkpt>
      <trkpt lat="46.72184" lon="6.42066">
        <ele>633.6459961</ele>
        <time>2011-10-02T11:03:02Z</time>
      </trkpt>
      <trkpt lat="46.72178" lon="6.42027">
        <ele>630.2814941</ele>
        <time>2011-10-02T11:03:29Z</time>
      </trkpt>
      <trkpt lat="46.72203" lon="6.41902">
        <ele>625.4748535</ele>
        <time>2011-10-02T11:04:49Z</time>
      </trkpt>
      <trkpt lat="46.72197" lon="6.41772">
        <ele>626.4362793</ele>
        <time>2011-10-02T11:06:07Z</time>
      </trkpt>
      <trkpt lat="46.72173" lon="6.41744">
        <ele>624.9943848</ele>
        <time>2011-10-02T11:06:36Z</time>
      </trkpt>
      <trkpt lat="46.72139" lon="6.41789">
        <ele>624.9943848</ele>
        <time>2011-10-02T11:07:45Z</time>
      </trkpt>
      <trkpt lat="46.72173" lon="6.41799">
        <ele>624.5136719</ele>
        <time>2011-10-02T11:08:05Z</time>
      </trkpt>
      <trkpt lat="46.72162" lon="6.4183">
        <ele>625.4748535</ele>
        <time>2011-10-02T11:08:33Z</time>
      </trkpt>
      <trkpt lat="46.72168" lon="6.41858">
        <ele>624.032959</ele>
        <time>2011-10-02T11:08:57Z</time>
      </trkpt>
      <trkpt lat="46.72126" lon="6.41922">
        <ele>625.4748535</ele>
        <time>2011-10-02T11:09:48Z</time>
      </trkpt>
      <trkpt lat="46.72116" lon="6.41978">
        <ele>624.032959</ele>
        <time>2011-10-02T11:10:47Z</time>
      </trkpt>
      <trkpt lat="46.72107" lon="6.42055">
        <ele>620.1877441</ele>
        <time>2011-10-02T11:11:59Z</time>
      </trkpt>
      <trkpt lat="46.72182" lon="6.42081">
        <ele>622.5910645</ele>
        <time>2011-10-02T11:13:40Z</time>
      </trkpt>
      <trkpt lat="46.72183" lon="6.42045">
        <ele>623.5524902</ele>
        <time>2011-10-02T11:14:02Z</time>
      </trkpt>
      <trkpt lat="46.72188" lon="6.42078">
        <ele>624.032959</ele>
        <time>2011-10-02T11:14:24Z</time>
      </trkpt>
      <trkpt lat="46.722" lon="6.42086">
        <ele>623.5524902</ele>
        <time>2011-10-02T11:14:32Z</time>
      </trkpt>
      <trkpt lat="46.72175" lon="6.42127">
        <ele>624.032959</ele>
        <time>2011-10-02T11:14:52Z</time>
      </trkpt>
      <trkpt lat="46.72182" lon="6.42173">
        <ele>622.5910645</ele>
        <time>2011-10-02T11:15:12Z</time>
      </trkpt>
      <trkpt lat="46.72224" lon="6.42244">
        <ele>621.6296387</ele>
        <time>2011-10-02T11:15:54Z</time>
      </trkpt>
      <trkpt lat="46.7221" lon="6.42359">
        <ele>622.1103516</ele>
        <time>2011-10-02T11:16:56Z</time>
      </trkpt>
      <trkpt lat="46.72244" lon="6.42428">
        <ele>623.0717773</ele>
        <time>2011-10-02T11:17:13Z</time>
      </trkpt>
      <trkpt lat="46.7227" lon="6.42448">
        <ele>623.0717773</ele>
        <time>2011-10-02T11:17:29Z</time>
      </trkpt>
      <trkpt lat="46.72276" lon="6.42513">
        <ele>624.032959</ele>
        <time>2011-10-02T11:18:33Z</time>
      </trkpt>
      <trkpt lat="46.72285" lon="6.4251">
        <ele>626.4362793</ele>
        <time>2011-10-02T11:18:48Z</time>
      </trkpt>
      <trkpt lat="46.72313" lon="6.42566">
        <ele>624.5136719</ele>
        <time>2011-10-02T11:19:40Z</time>
      </trkpt>
      <trkpt lat="46.72282" lon="6.42643">
        <ele>626.4362793</ele>
        <time>2011-10-02T11:20:22Z</time>
      </trkpt>
      <trkpt lat="46.72301" lon="6.42696">
        <ele>630.762207</ele>
        <time>2011-10-02T11:21:09Z</time>
      </trkpt>
      <trkpt lat="46.72322" lon="6.42719">
        <ele>633.6459961</ele>
        <time>2011-10-02T11:21:49Z</time>
      </trkpt>
      <trkpt lat="46.72362" lon="6.4279">
        <ele>633.6459961</ele>
        <time>2011-10-02T11:22:29Z</time>
      </trkpt>
      <trkpt lat="46.72378" lon="6.42848">
        <ele>634.6074219</ele>
        <time>2011-10-02T11:22:53Z</time>
      </trkpt>
      <trkpt lat="46.72352" lon="6.42958">
        <ele>634.6074219</ele>
        <time>2011-10-02T11:24:01Z</time>
      </trkpt>
      <trkpt lat="46.72363" lon="6.42973">
        <ele>633.1652832</ele>
        <time>2011-10-02T11:24:27Z</time>
      </trkpt>
      <trkpt lat="46.72434" lon="6.42948">
        <ele>630.762207</ele>
        <time>2011-10-02T11:25:39Z</time>
      </trkpt>
      <trkpt lat="46.72461" lon="6.42991">
        <ele>629.3200684</ele>
        <time>2011-10-02T11:26:36Z</time>
      </trkpt>
      <trkpt lat="46.72445" lon="6.43061">
        <ele>630.2814941</ele>
        <time>2011-10-02T11:27:24Z</time>
      </trkpt>
      <trkpt lat="46.72483" lon="6.43103">
        <ele>632.6848145</ele>
        <time>2011-10-02T11:28:05Z</time>
      </trkpt>
      <trkpt lat="46.72517" lon="6.43107">
        <ele>633.1652832</ele>
        <time>2011-10-02T11:28:32Z</time>
      </trkpt>
      <trkpt lat="46.7253" lon="6.43116">
        <ele>633.1652832</ele>
        <time>2011-10-02T11:28:50Z</time>
      </trkpt>
      <trkpt lat="46.72507" lon="6.43163">
        <ele>634.126709</ele>
        <time>2011-10-02T11:29:12Z</time>
      </trkpt>
      <trkpt lat="46.72582" lon="6.43198">
        <ele>635.0881348</ele>
        <time>2011-10-02T11:30:16Z</time>
      </trkpt>
      <trkpt lat="46.72595" lon="6.43267">
        <ele>637.0107422</ele>
        <time>2011-10-02T11:31:02Z</time>
      </trkpt>
      <trkpt lat="46.72629" lon="6.43273">
        <ele>636.5302734</ele>
        <time>2011-10-02T11:31:30Z</time>
      </trkpt>
      <trkpt lat="46.72676" lon="6.43342">
        <ele>638.9335938</ele>
        <time>2011-10-02T11:32:44Z</time>
      </trkpt>
      <trkpt lat="46.72747" lon="6.43368">
        <ele>640.3754883</ele>
        <time>2011-10-02T11:34:00Z</time>
      </trkpt>
      <trkpt lat="46.72736" lon="6.43455">
        <ele>641.8173828</ele>
        <time>2011-10-02T11:34:43Z</time>
      </trkpt>
      <trkpt lat="46.72835" lon="6.43491">
        <ele>644.2207031</ele>
        <time>2011-10-02T11:36:18Z</time>
      </trkpt>
      <trkpt lat="46.72846" lon="6.43523">
        <ele>645.1818848</ele>
        <time>2011-10-02T11:36:37Z</time>
      </trkpt>
      <trkpt lat="46.72888" lon="6.43562">
        <ele>646.1433105</ele>
        <time>2011-10-02T11:37:05Z</time>
      </trkpt>
      <trkpt lat="46.72909" lon="6.436">
        <ele>646.6240234</ele>
        <time>2011-10-02T11:37:32Z</time>
      </trkpt>
      <trkpt lat="46.72907" lon="6.4364">
        <ele>647.5852051</ele>
        <time>2011-10-02T11:37:58Z</time>
      </trkpt>
      <trkpt lat="46.7291" lon="6.43681">
        <ele>648.065918</ele>
        <time>2011-10-02T11:38:19Z</time>
      </trkpt>
      <trkpt lat="46.72934" lon="6.43683">
        <ele>648.5463867</ele>
        <time>2011-10-02T11:38:39Z</time>
      </trkpt>
      <trkpt lat="46.72984" lon="6.43706">
        <ele>649.0270996</ele>
        <time>2011-10-02T11:39:33Z</time>
      </trkpt>
      <trkpt lat="46.7297" lon="6.43745">
        <ele>649.5078125</ele>
        <time>2011-10-02T11:39:52Z</time>
      </trkpt>
      <trkpt lat="46.72976" lon="6.43799">
        <ele>649.0270996</ele>
        <time>2011-10-02T11:40:25Z</time>
      </trkpt>
      <trkpt lat="46.72985" lon="6.43792">
        <ele>648.5463867</ele>
        <time>2011-10-02T11:40:27Z</time>
      </trkpt>
      <trkpt lat="46.72968" lon="6.43815">
        <ele>649.0270996</ele>
        <time>2011-10-02T11:40:43Z</time>
      </trkpt>
      <trkpt lat="46.72987" lon="6.43843">
        <ele>648.5463867</ele>
        <time>2011-10-02T11:41:08Z</time>
      </trkpt>
      <trkpt lat="46.73043" lon="6.43865">
        <ele>649.0270996</ele>
        <time>2011-10-02T11:42:00Z</time>
      </trkpt>
      <trkpt lat="46.73084" lon="6.43891">
        <ele>648.5463867</ele>
        <time>2011-10-02T11:42:36Z</time>
      </trkpt>
      <trkpt lat="46.73072" lon="6.4392">
        <ele>649.0270996</ele>
        <time>2011-10-02T11:42:56Z</time>
      </trkpt>
      <trkpt lat="46.73113" lon="6.43982">
        <ele>646.1433105</ele>
        <time>2011-10-02T11:44:18Z</time>
      </trkpt>
      <trkpt lat="46.73102" lon="6.44066">
        <ele>644.2207031</ele>
        <time>2011-10-02T11:45:15Z</time>
      </trkpt>
      <trkpt lat="46.73111" lon="6.44151">
        <ele>643.2592773</ele>
        <time>2011-10-02T11:46:16Z</time>
      </trkpt>
      <trkpt lat="46.73134" lon="6.44198">
        <ele>643.7399902</ele>
        <time>2011-10-02T11:47:09Z</time>
      </trkpt>
      <trkpt lat="46.73106" lon="6.44245">
        <ele>644.2207031</ele>
        <time>2011-10-02T11:47:37Z</time>
      </trkpt>
      <trkpt lat="46.73107" lon="6.44289">
        <ele>642.2980957</ele>
        <time>2011-10-02T11:48:10Z</time>
      </trkpt>
      <trkpt lat="46.73112" lon="6.44332">
        <ele>640.855957</ele>
        <time>2011-10-02T11:48:24Z</time>
      </trkpt>
      <trkpt lat="46.73141" lon="6.44348">
        <ele>640.855957</ele>
        <time>2011-10-02T11:49:13Z</time>
      </trkpt>
      <trkpt lat="46.73054" lon="6.44659">
        <ele>640.3754883</ele>
        <time>2011-10-02T11:49:59Z</time>
      </trkpt>
      <trkpt lat="46.7304" lon="6.44624">
        <ele>640.855957</ele>
        <time>2011-10-02T11:50:37Z</time>
      </trkpt>
      <trkpt lat="46.7304" lon="6.4472">
        <ele>637.4914551</ele>
        <time>2011-10-02T11:51:41Z</time>
      </trkpt>
      <trkpt lat="46.7302" lon="6.44743">
        <ele>637.0107422</ele>
        <time>2011-10-02T11:52:06Z</time>
      </trkpt>
      <trkpt lat="46.72998" lon="6.44817">
        <ele>636.5302734</ele>
        <time>2011-10-02T11:52:54Z</time>
      </trkpt>
      <trkpt lat="46.72994" lon="6.44832">
        <ele>636.0495605</ele>
        <time>2011-10-02T11:53:06Z</time>
      </trkpt>
      <trkpt lat="46.72919" lon="6.44957">
        <ele>636.0495605</ele>
        <time>2011-10-02T11:55:28Z</time>
      </trkpt>
      <trkpt lat="46.72853" lon="6.45015">
        <ele>631.2429199</ele>
        <time>2011-10-02T11:57:08Z</time>
      </trkpt>
      <trkpt lat="46.72851" lon="6.45072">
        <ele>628.8395996</ele>
        <time>2011-10-02T11:57:39Z</time>
      </trkpt>
      <trkpt lat="46.72823" lon="6.45123">
        <ele>625.4748535</ele>
        <time>2011-10-02T11:58:20Z</time>
      </trkpt>
      <trkpt lat="46.7286" lon="6.45327">
        <ele>609.1325684</ele>
        <time>2011-10-02T12:01:24Z</time>
      </trkpt>
      <trkpt lat="46.72846" lon="6.45313">
        <ele>602.8837891</ele>
        <time>2011-10-02T12:01:56Z</time>
      </trkpt>
      <trkpt lat="46.72864" lon="6.45292">
        <ele>599.5192871</ele>
        <time>2011-10-02T12:02:25Z</time>
      </trkpt>
      <trkpt lat="46.72835" lon="6.45314">
        <ele>598.0773926</ele>
        <time>2011-10-02T12:04:11Z</time>
      </trkpt>
      <trkpt lat="46.72883" lon="6.4527">
        <ele>786.4958496</ele>
        <time>2011-10-02T12:07:10Z</time>
      </trkpt>
      <trkpt lat="46.72873" lon="6.45299">
        <ele>786.0151367</ele>
        <time>2011-10-02T12:07:33Z</time>
      </trkpt>
      <trkpt lat="46.72854" lon="6.45307">
        <ele>786.0151367</ele>
        <time>2011-10-02T12:10:18Z</time>
      </trkpt>
      <trkpt lat="46.72843" lon="6.45293">
        <ele>780.7280273</ele>
        <time>2011-10-02T12:10:46Z</time>
      </trkpt>
      <trkpt lat="46.72831" lon="6.45293">
        <ele>703.8225098</ele>
        <time>2011-10-02T12:11:09Z</time>
      </trkpt>
      <trkpt lat="46.72831" lon="6.45292">
        <ele>699.4963379</ele>
        <time>2011-10-02T12:11:11Z</time>
      </trkpt>
      <trkpt lat="46.7285" lon="6.45333">
        <ele>674.5021973</ele>
        <time>2011-10-02T12:13:15Z</time>
      </trkpt>
      <trkpt lat="46.72838" lon="6.45308">
        <ele>674.9829102</ele>
        <time>2011-10-02T12:14:38Z</time>
      </trkpt>
      <trkpt lat="46.72856" lon="6.45316">
        <ele>674.9829102</ele>
        <time>2011-10-02T12:15:35Z</time>
      </trkpt>
      <trkpt lat="46.72854" lon="6.45303">
        <ele>674.9829102</ele>
        <time>2011-10-02T12:15:53Z</time>
      </trkpt>
      <trkpt lat="46.72839" lon="6.45304">
        <ele>674.9829102</ele>
        <time>2011-10-02T12:16:25Z</time>
      </trkpt>
      <trkpt lat="46.72859" lon="6.45312">
        <ele>675.4633789</ele>
        <time>2011-10-02T12:17:17Z</time>
      </trkpt>
      <trkpt lat="46.72864" lon="6.4531">
        <ele>675.4633789</ele>
        <time>2011-10-02T12:17:30Z</time>
      </trkpt>
      <trkpt lat="46.72853" lon="6.45343">
        <ele>675.4633789</ele>
        <time>2011-10-02T12:20:27Z</time>
      </trkpt>
      <trkpt lat="46.7285" lon="6.45319">
        <ele>675.4633789</ele>
        <time>2011-10-02T12:22:38Z</time>
      </trkpt>
      <trkpt lat="46.72836" lon="6.45327">
        <ele>675.9440918</ele>
        <time>2011-10-02T12:23:12Z</time>
      </trkpt>
      <trkpt lat="46.72846" lon="6.45356">
        <ele>675.4633789</ele>
        <time>2011-10-02T12:23:33Z</time>
      </trkpt>
      <trkpt lat="46.72849" lon="6.45339">
        <ele>675.9440918</ele>
        <time>2011-10-02T12:24:06Z</time>
      </trkpt>
      <trkpt lat="46.72837" lon="6.4535">
        <ele>675.9440918</ele>
        <time>2011-10-02T12:24:41Z</time>
      </trkpt>
      <trkpt lat="46.72849" lon="6.45329">
        <ele>677.8666992</ele>
        <time>2011-10-02T12:25:54Z</time>
      </trkpt>
      <trkpt lat="46.72858" lon="6.45368">
        <ele>679.7893066</ele>
        <time>2011-10-02T12:26:39Z</time>
      </trkpt>
      <trkpt lat="46.7287" lon="6.45365">
        <ele>680.2700195</ele>
        <time>2011-10-02T12:26:57Z</time>
      </trkpt>
      <trkpt lat="46.72877" lon="6.45393">
        <ele>680.2700195</ele>
        <time>2011-10-02T12:27:44Z</time>
      </trkpt>
      <trkpt lat="46.7289" lon="6.45386">
        <ele>680.2700195</ele>
        <time>2011-10-02T12:28:16Z</time>
      </trkpt>
      <trkpt lat="46.72868" lon="6.45371">
        <ele>680.2700195</ele>
        <time>2011-10-02T12:28:41Z</time>
      </trkpt>
      <trkpt lat="46.72853" lon="6.45384">
        <ele>679.7893066</ele>
        <time>2011-10-02T12:29:14Z</time>
      </trkpt>
      <trkpt lat="46.72902" lon="6.45447">
        <ele>678.828125</ele>
        <time>2011-10-02T12:29:51Z</time>
      </trkpt>
      <trkpt lat="46.7289" lon="6.4548">
        <ele>679.3085938</ele>
        <time>2011-10-02T12:30:19Z</time>
      </trkpt>
      <trkpt lat="46.72886" lon="6.45507">
        <ele>678.828125</ele>
        <time>2011-10-02T12:30:41Z</time>
      </trkpt>
      <trkpt lat="46.72908" lon="6.45519">
        <ele>677.3862305</ele>
        <time>2011-10-02T12:31:32Z</time>
      </trkpt>
      <trkpt lat="46.72923" lon="6.45566">
        <ele>676.4248047</ele>
        <time>2011-10-02T12:32:30Z</time>
      </trkpt>
      <trkpt lat="46.72989" lon="6.45625">
        <ele>677.3862305</ele>
        <time>2011-10-02T12:33:54Z</time>
      </trkpt>
      <trkpt lat="46.73021" lon="6.4566">
        <ele>677.8666992</ele>
        <time>2011-10-02T12:34:21Z</time>
      </trkpt>
      <trkpt lat="46.73027" lon="6.45668">
        <ele>677.8666992</ele>
        <time>2011-10-02T12:34:29Z</time>
      </trkpt>
      <trkpt lat="46.73036" lon="6.45689">
        <ele>677.3862305</ele>
        <time>2011-10-02T12:34:43Z</time>
      </trkpt>
      <trkpt lat="46.73099" lon="6.45795">
        <ele>665.3696289</ele>
        <time>2011-10-02T12:37:20Z</time>
      </trkpt>
      <trkpt lat="46.7309" lon="6.4605">
        <ele>670.6569824</ele>
        <time>2011-10-02T12:40:08Z</time>
      </trkpt>
      <trkpt lat="46.73066" lon="6.4607">
        <ele>670.1762695</ele>
        <time>2011-10-02T12:41:01Z</time>
      </trkpt>
      <trkpt lat="46.72967" lon="6.46201">
        <ele>652.8725586</ele>
        <time>2011-10-02T12:43:32Z</time>
      </trkpt>
      <trkpt lat="46.72942" lon="6.46279">
        <ele>644.7011719</ele>
        <time>2011-10-02T12:44:29Z</time>
      </trkpt>
      <trkpt lat="46.72956" lon="6.46343">
        <ele>638.4528809</ele>
        <time>2011-10-02T12:45:28Z</time>
      </trkpt>
      <trkpt lat="46.72954" lon="6.4637">
        <ele>633.1652832</ele>
        <time>2011-10-02T12:46:20Z</time>
      </trkpt>
      <trkpt lat="46.72988" lon="6.46368">
        <ele>626.9169922</ele>
        <time>2011-10-02T12:48:33Z</time>
      </trkpt>
      <trkpt lat="46.72985" lon="6.46347">
        <ele>624.032959</ele>
        <time>2011-10-02T12:49:37Z</time>
      </trkpt>
      <trkpt lat="46.72991" lon="6.4633">
        <ele>615.8618164</ele>
        <time>2011-10-02T12:52:49Z</time>
      </trkpt>
      <trkpt lat="46.72986" lon="6.46323">
        <ele>614.4196777</ele>
        <time>2011-10-02T12:53:27Z</time>
      </trkpt>
      <trkpt lat="46.72988" lon="6.4635">
        <ele>609.6132813</ele>
        <time>2011-10-02T12:55:36Z</time>
      </trkpt>
      <trkpt lat="46.73016" lon="6.46369">
        <ele>605.7680664</ele>
        <time>2011-10-02T12:58:16Z</time>
      </trkpt>
      <trkpt lat="46.73015" lon="6.4639">
        <ele>600.4807129</ele>
        <time>2011-10-02T12:59:41Z</time>
      </trkpt>
      <trkpt lat="46.72986" lon="6.46377">
        <ele>601.4418945</ele>
        <time>2011-10-02T13:00:00Z</time>
      </trkpt>
      <trkpt lat="46.73019" lon="6.46357">
        <ele>600.4807129</ele>
        <time>2011-10-02T13:00:39Z</time>
      </trkpt>
      <trkpt lat="46.72998" lon="6.46312">
        <ele>607.2099609</ele>
        <time>2011-10-02T13:02:37Z</time>
      </trkpt>
      <trkpt lat="46.72974" lon="6.46219">
        <ele>611.5358887</ele>
        <time>2011-10-02T13:04:49Z</time>
      </trkpt>
      <trkpt lat="46.72986" lon="6.46158">
        <ele>614.9003906</ele>
        <time>2011-10-02T13:05:45Z</time>
      </trkpt>
      <trkpt lat="46.73046" lon="6.46102">
        <ele>618.7456055</ele>
        <time>2011-10-02T13:06:51Z</time>
      </trkpt>
      <trkpt lat="46.7308" lon="6.46064">
        <ele>619.2263184</ele>
        <time>2011-10-02T13:07:43Z</time>
      </trkpt>
      <trkpt lat="46.73044" lon="6.46077">
        <ele>626.4362793</ele>
        <time>2011-10-02T13:08:59Z</time>
      </trkpt>
      <trkpt lat="46.72949" lon="6.46131">
        <ele>631.7233887</ele>
        <time>2011-10-02T13:10:57Z</time>
      </trkpt>
      <trkpt lat="46.72948" lon="6.46131">
        <ele>631.7233887</ele>
        <time>2011-10-02T13:11:09Z</time>
      </trkpt>
      <trkpt lat="46.72943" lon="6.46188">
        <ele>636.0495605</ele>
        <time>2011-10-02T13:11:59Z</time>
      </trkpt>
      <trkpt lat="46.72918" lon="6.46244">
        <ele>638.4528809</ele>
        <time>2011-10-02T13:12:39Z</time>
      </trkpt>
      <trkpt lat="46.72868" lon="6.46572">
        <ele>655.2758789</ele>
        <time>2011-10-02T13:16:31Z</time>
      </trkpt>
      <trkpt lat="46.72863" lon="6.46643">
        <ele>653.8339844</ele>
        <time>2011-10-02T13:17:19Z</time>
      </trkpt>
      <trkpt lat="46.72826" lon="6.46783">
        <ele>650.4692383</ele>
        <time>2011-10-02T13:18:46Z</time>
      </trkpt>
      <trkpt lat="46.72789" lon="6.47026">
        <ele>638.9335938</ele>
        <time>2011-10-02T13:21:11Z</time>
      </trkpt>
      <trkpt lat="46.72727" lon="6.47083">
        <ele>637.0107422</ele>
        <time>2011-10-02T13:22:11Z</time>
      </trkpt>
      <trkpt lat="46.72703" lon="6.47122">
        <ele>636.5302734</ele>
        <time>2011-10-02T13:22:45Z</time>
      </trkpt>
      <trkpt lat="46.72653" lon="6.47267">
        <ele>627.3977051</ele>
        <time>2011-10-02T13:24:25Z</time>
      </trkpt>
      <trkpt lat="46.72624" lon="6.47361">
        <ele>619.2263184</ele>
        <time>2011-10-02T13:25:36Z</time>
      </trkpt>
      <trkpt lat="46.72628" lon="6.47426">
        <ele>614.9003906</ele>
        <time>2011-10-02T13:26:12Z</time>
      </trkpt>
      <trkpt lat="46.72593" lon="6.47544">
        <ele>605.2873535</ele>
        <time>2011-10-02T13:27:34Z</time>
      </trkpt>
      <trkpt lat="46.72606" lon="6.47571">
        <ele>603.8452148</ele>
        <time>2011-10-02T13:27:50Z</time>
      </trkpt>
      <trkpt lat="46.72586" lon="6.47609">
        <ele>601.4418945</ele>
        <time>2011-10-02T13:28:17Z</time>
      </trkpt>
      <trkpt lat="46.72562" lon="6.47695">
        <ele>595.1933594</ele>
        <time>2011-10-02T13:29:18Z</time>
      </trkpt>
      <trkpt lat="46.72559" lon="6.47738">
        <ele>592.7902832</ele>
        <time>2011-10-02T13:29:42Z</time>
      </trkpt>
      <trkpt lat="46.72577" lon="6.47775">
        <ele>590.8674316</ele>
        <time>2011-10-02T13:30:03Z</time>
      </trkpt>
      <trkpt lat="46.72573" lon="6.47793">
        <ele>590.8674316</ele>
        <time>2011-10-02T13:30:20Z</time>
      </trkpt>
      <trkpt lat="46.72539" lon="6.47829">
        <ele>592.3095703</ele>
        <time>2011-10-02T13:30:56Z</time>
      </trkpt>
      <trkpt lat="46.72562" lon="6.47925">
        <ele>595.1933594</ele>
        <time>2011-10-02T13:32:06Z</time>
      </trkpt>
      <trkpt lat="46.72541" lon="6.47936">
        <ele>596.1547852</ele>
        <time>2011-10-02T13:32:19Z</time>
      </trkpt>
      <trkpt lat="46.72528" lon="6.47966">
        <ele>597.1159668</ele>
        <time>2011-10-02T13:32:41Z</time>
      </trkpt>
      <trkpt lat="46.72519" lon="6.47991">
        <ele>597.5966797</ele>
        <time>2011-10-02T13:33:03Z</time>
      </trkpt>
      <trkpt lat="46.72521" lon="6.4804">
        <ele>597.1159668</ele>
        <time>2011-10-02T13:33:34Z</time>
      </trkpt>
      <trkpt lat="46.72499" lon="6.48133">
        <ele>592.3095703</ele>
        <time>2011-10-02T13:34:37Z</time>
      </trkpt>
      <trkpt lat="46.72516" lon="6.4817">
        <ele>587.9833984</ele>
        <time>2011-10-02T13:35:02Z</time>
      </trkpt>
      <trkpt lat="46.72496" lon="6.48168">
        <ele>587.0219727</ele>
        <time>2011-10-02T13:35:09Z</time>
      </trkpt>
      <trkpt lat="46.72504" lon="6.48257">
        <ele>577.8896484</ele>
        <time>2011-10-02T13:36:10Z</time>
      </trkpt>
      <trkpt lat="46.72485" lon="6.48307">
        <ele>572.6025391</ele>
        <time>2011-10-02T13:36:51Z</time>
      </trkpt>
      <trkpt lat="46.72513" lon="6.48386">
        <ele>566.8344727</ele>
        <time>2011-10-02T13:37:34Z</time>
      </trkpt>
      <trkpt lat="46.72498" lon="6.48493">
        <ele>558.1828613</ele>
        <time>2011-10-02T13:39:31Z</time>
      </trkpt>
      <trkpt lat="46.72532" lon="6.48531">
        <ele>558.1828613</ele>
        <time>2011-10-02T13:39:57Z</time>
      </trkpt>
      <trkpt lat="46.72552" lon="6.48589">
        <ele>557.2214355</ele>
        <time>2011-10-02T13:40:39Z</time>
      </trkpt>
      <trkpt lat="46.72564" lon="6.48623">
        <ele>554.8178711</ele>
        <time>2011-10-02T13:40:57Z</time>
      </trkpt>
      <trkpt lat="46.72592" lon="6.48647">
        <ele>554.3374023</ele>
        <time>2011-10-02T13:41:23Z</time>
      </trkpt>
      <trkpt lat="46.72597" lon="6.48651">
        <ele>552.8952637</ele>
        <time>2011-10-02T13:41:34Z</time>
      </trkpt>
      <trkpt lat="46.72587" lon="6.48654">
        <ele>551.934082</ele>
        <time>2011-10-02T13:41:47Z</time>
      </trkpt>
      <trkpt lat="46.72694" lon="6.4873">
        <ele>556.7407227</ele>
        <time>2011-10-02T13:43:12Z</time>
      </trkpt>
      <trkpt lat="46.72699" lon="6.48735">
        <ele>556.2600098</ele>
        <time>2011-10-02T13:43:24Z</time>
      </trkpt>
      <trkpt lat="46.72753" lon="6.48849">
        <ele>564.9118652</ele>
        <time>2011-10-02T13:45:49Z</time>
      </trkpt>
      <trkpt lat="46.72755" lon="6.48851">
        <ele>564.9118652</ele>
        <time>2011-10-02T13:45:53Z</time>
      </trkpt>
      <trkpt lat="46.72793" lon="6.48893">
        <ele>559.6247559</ele>
        <time>2011-10-02T13:46:27Z</time>
      </trkpt>
      <trkpt lat="46.72786" lon="6.48932">
        <ele>557.2214355</ele>
        <time>2011-10-02T13:46:48Z</time>
      </trkpt>
      <trkpt lat="46.72805" lon="6.491">
        <ele>548.0888672</ele>
        <time>2011-10-02T13:49:02Z</time>
      </trkpt>
      <trkpt lat="46.72792" lon="6.4912">
        <ele>548.0888672</ele>
        <time>2011-10-02T13:49:18Z</time>
      </trkpt>
      <trkpt lat="46.72807" lon="6.49138">
        <ele>548.5693359</ele>
        <time>2011-10-02T13:49:36Z</time>
      </trkpt>
      <trkpt lat="46.72798" lon="6.49158">
        <ele>549.0500488</ele>
        <time>2011-10-02T13:49:54Z</time>
      </trkpt>
      <trkpt lat="46.72819" lon="6.4918">
        <ele>552.8952637</ele>
        <time>2011-10-02T13:50:30Z</time>
      </trkpt>
      <trkpt lat="46.72815" lon="6.49229">
        <ele>562.0280762</ele>
        <time>2011-10-02T13:51:46Z</time>
      </trkpt>
      <trkpt lat="46.72832" lon="6.4927">
        <ele>564.4311523</ele>
        <time>2011-10-02T13:52:24Z</time>
      </trkpt>
      <trkpt lat="46.72833" lon="6.49275">
        <ele>564.4311523</ele>
        <time>2011-10-02T13:52:29Z</time>
      </trkpt>
      <trkpt lat="46.72817" lon="6.49297">
        <ele>561.5473633</ele>
        <time>2011-10-02T13:52:44Z</time>
      </trkpt>
      <trkpt lat="46.72816" lon="6.49316">
        <ele>557.2214355</ele>
        <time>2011-10-02T13:52:59Z</time>
      </trkpt>
      <trkpt lat="46.72822" lon="6.49361">
        <ele>556.2600098</ele>
        <time>2011-10-02T13:53:35Z</time>
      </trkpt>
      <trkpt lat="46.72836" lon="6.4939">
        <ele>553.3759766</ele>
        <time>2011-10-02T13:53:51Z</time>
      </trkpt>
      <trkpt lat="46.72834" lon="6.49416">
        <ele>550.9726563</ele>
        <time>2011-10-02T13:54:14Z</time>
      </trkpt>
      <trkpt lat="46.72873" lon="6.49473">
        <ele>554.8178711</ele>
        <time>2011-10-02T13:57:41Z</time>
      </trkpt>
      <trkpt lat="46.72862" lon="6.49469">
        <ele>553.8566895</ele>
        <time>2011-10-02T13:59:18Z</time>
      </trkpt>
      <trkpt lat="46.72889" lon="6.49491">
        <ele>563.4699707</ele>
        <time>2011-10-02T14:03:43Z</time>
      </trkpt>
      <trkpt lat="46.72886" lon="6.49481">
        <ele>568.2763672</ele>
        <time>2011-10-02T14:04:25Z</time>
      </trkpt>
      <trkpt lat="46.72905" lon="6.49467">
        <ele>574.5251465</ele>
        <time>2011-10-02T14:05:15Z</time>
      </trkpt>
      <trkpt lat="46.72911" lon="6.49413">
        <ele>587.0219727</ele>
        <time>2011-10-02T14:06:43Z</time>
      </trkpt>
      <trkpt lat="46.72939" lon="6.49454">
        <ele>592.7902832</ele>
        <time>2011-10-02T14:07:52Z</time>
      </trkpt>
      <trkpt lat="46.72934" lon="6.49508">
        <ele>595.1933594</ele>
        <time>2011-10-02T14:08:36Z</time>
      </trkpt>
      <trkpt lat="46.72902" lon="6.49567">
        <ele>595.6740723</ele>
        <time>2011-10-02T14:09:57Z</time>
      </trkpt>
      <trkpt lat="46.72872" lon="6.49654">
        <ele>595.1933594</ele>
        <time>2011-10-02T14:11:05Z</time>
      </trkpt>
      <trkpt lat="46.72796" lon="6.49694">
        <ele>594.7126465</ele>
        <time>2011-10-02T14:12:22Z</time>
      </trkpt>
      <trkpt lat="46.72791" lon="6.49752">
        <ele>594.2321777</ele>
        <time>2011-10-02T14:12:45Z</time>
      </trkpt>
      <trkpt lat="46.72742" lon="6.49826">
        <ele>594.2321777</ele>
        <time>2011-10-02T14:13:53Z</time>
      </trkpt>
      <trkpt lat="46.72714" lon="6.4989">
        <ele>593.7514648</ele>
        <time>2011-10-02T14:14:37Z</time>
      </trkpt>
      <trkpt lat="46.72757" lon="6.50066">
        <ele>593.270752</ele>
        <time>2011-10-02T14:16:53Z</time>
      </trkpt>
      <trkpt lat="46.72772" lon="6.50219">
        <ele>593.270752</ele>
        <time>2011-10-02T14:18:47Z</time>
      </trkpt>
      <trkpt lat="46.72771" lon="6.50256">
        <ele>592.7902832</ele>
        <time>2011-10-02T14:19:12Z</time>
      </trkpt>
      <trkpt lat="46.72735" lon="6.50449">
        <ele>580.7736816</ele>
        <time>2011-10-02T14:22:31Z</time>
      </trkpt>
      <trkpt lat="46.72773" lon="6.50503">
        <ele>581.7348633</ele>
        <time>2011-10-02T14:23:15Z</time>
      </trkpt>
      <trkpt lat="46.72768" lon="6.5053">
        <ele>581.2543945</ele>
        <time>2011-10-02T14:23:34Z</time>
      </trkpt>
      <trkpt lat="46.72742" lon="6.50611">
        <ele>571.1604004</ele>
        <time>2011-10-02T14:24:42Z</time>
      </trkpt>
      <trkpt lat="46.72777" lon="6.50801">
        <ele>554.8178711</ele>
        <time>2011-10-02T14:27:37Z</time>
      </trkpt>
      <trkpt lat="46.72786" lon="6.5082">
        <ele>550.9726563</ele>
        <time>2011-10-02T14:27:56Z</time>
      </trkpt>
      <trkpt lat="46.72778" lon="6.5107">
        <ele>532.2270508</ele>
        <time>2011-10-02T14:32:00Z</time>
      </trkpt>
      <trkpt lat="46.72836" lon="6.51098">
        <ele>531.2657471</ele>
        <time>2011-10-02T14:32:59Z</time>
      </trkpt>
      <trkpt lat="46.72822" lon="6.51178">
        <ele>527.901001</ele>
        <time>2011-10-02T14:33:46Z</time>
      </trkpt>
      <trkpt lat="46.72842" lon="6.51236">
        <ele>527.901001</ele>
        <time>2011-10-02T14:34:59Z</time>
      </trkpt>
      <trkpt lat="46.72829" lon="6.51275">
        <ele>527.901001</ele>
        <time>2011-10-02T14:35:29Z</time>
      </trkpt>
      <trkpt lat="46.7278" lon="6.5129">
        <ele>524.0557861</ele>
        <time>2011-10-02T14:36:23Z</time>
      </trkpt>
      <trkpt lat="46.72748" lon="6.51347">
        <ele>520.2105713</ele>
        <time>2011-10-02T14:37:07Z</time>
      </trkpt>
      <trkpt lat="46.72677" lon="6.51474">
        <ele>506.2714844</ele>
        <time>2011-10-02T14:38:57Z</time>
      </trkpt>
      <trkpt lat="46.72667" lon="6.51476">
        <ele>505.3101807</ele>
        <time>2011-10-02T14:39:13Z</time>
      </trkpt>
      <trkpt lat="46.72698" lon="6.51414">
        <ele>500.0229492</ele>
        <time>2011-10-02T14:39:59Z</time>
      </trkpt>
      <trkpt lat="46.72656" lon="6.51471">
        <ele>492.3323975</ele>
        <time>2011-10-02T14:41:03Z</time>
      </trkpt>
      <trkpt lat="46.72635" lon="6.51449">
        <ele>491.8516846</ele>
        <time>2011-10-02T14:41:41Z</time>
      </trkpt>
      <trkpt lat="46.7261" lon="6.51474">
        <ele>492.3323975</ele>
        <time>2011-10-02T14:42:16Z</time>
      </trkpt>
      <trkpt lat="46.72579" lon="6.51443">
        <ele>494.2550049</ele>
        <time>2011-10-02T14:43:03Z</time>
      </trkpt>
      <trkpt lat="46.72594" lon="6.51489">
        <ele>500.9841309</ele>
        <time>2011-10-02T14:44:07Z</time>
      </trkpt>
      <trkpt lat="46.72579" lon="6.51506">
        <ele>501.9455566</ele>
        <time>2011-10-02T14:44:23Z</time>
      </trkpt>
      <trkpt lat="46.72552" lon="6.51568">
        <ele>500.9841309</ele>
        <time>2011-10-02T14:45:15Z</time>
      </trkpt>
      <trkpt lat="46.72557" lon="6.51637">
        <ele>500.50354</ele>
        <time>2011-10-02T14:46:03Z</time>
      </trkpt>
      <trkpt lat="46.72564" lon="6.51671">
        <ele>497.6196289</ele>
        <time>2011-10-02T14:46:24Z</time>
      </trkpt>
      <trkpt lat="46.72605" lon="6.5171">
        <ele>499.5422363</ele>
        <time>2011-10-02T14:47:17Z</time>
      </trkpt>
      <trkpt lat="46.72633" lon="6.51747">
        <ele>496.1777344</ele>
        <time>2011-10-02T14:47:49Z</time>
      </trkpt>
      <trkpt lat="46.72638" lon="6.51887">
        <ele>489.4483643</ele>
        <time>2011-10-02T14:49:22Z</time>
      </trkpt>
      <trkpt lat="46.72696" lon="6.51985">
        <ele>484.6418457</ele>
        <time>2011-10-02T14:50:39Z</time>
      </trkpt>
      <trkpt lat="46.72742" lon="6.52038">
        <ele>484.1611328</ele>
        <time>2011-10-02T14:51:35Z</time>
      </trkpt>
      <trkpt lat="46.72764" lon="6.52133">
        <ele>483.1998291</ele>
        <time>2011-10-02T14:52:43Z</time>
      </trkpt>
      <trkpt lat="46.72758" lon="6.52189">
        <ele>473.5866699</ele>
        <time>2011-10-02T14:53:27Z</time>
      </trkpt>
      <trkpt lat="46.72779" lon="6.52213">
        <ele>468.2993164</ele>
        <time>2011-10-02T14:54:01Z</time>
      </trkpt>
      <trkpt lat="46.7278" lon="6.52234">
        <ele>464.9348145</ele>
        <time>2011-10-02T14:54:19Z</time>
      </trkpt>
      <trkpt lat="46.72799" lon="6.5224">
        <ele>463.9733887</ele>
        <time>2011-10-02T14:54:36Z</time>
      </trkpt>
      <trkpt lat="46.72782" lon="6.52248">
        <ele>463.4927979</ele>
        <time>2011-10-02T14:55:55Z</time>
      </trkpt>
      <trkpt lat="46.72758" lon="6.52328">
        <ele>463.9733887</ele>
        <time>2011-10-02T14:56:49Z</time>
      </trkpt>
      <trkpt lat="46.72754" lon="6.52458">
        <ele>467.3381348</ele>
        <time>2011-10-02T14:59:16Z</time>
      </trkpt>
      <trkpt lat="46.7275" lon="6.52554">
        <ele>465.4155273</ele>
        <time>2011-10-02T15:00:16Z</time>
      </trkpt>
      <trkpt lat="46.72787" lon="6.52683">
        <ele>461.5701904</ele>
        <time>2011-10-02T15:01:47Z</time>
      </trkpt>
      <trkpt lat="46.72857" lon="6.52789">
        <ele>458.6861572</ele>
        <time>2011-10-02T15:03:12Z</time>
      </trkpt>
      <trkpt lat="46.72825" lon="6.52858">
        <ele>458.2055664</ele>
        <time>2011-10-02T15:04:01Z</time>
      </trkpt>
      <trkpt lat="46.72751" lon="6.52958">
        <ele>455.3215332</ele>
        <time>2011-10-02T15:05:48Z</time>
      </trkpt>
      <trkpt lat="46.7272" lon="6.52981">
        <ele>454.8408203</ele>
        <time>2011-10-02T15:06:15Z</time>
      </trkpt>
      <trkpt lat="46.72686" lon="6.5305">
        <ele>454.8408203</ele>
        <time>2011-10-02T15:07:38Z</time>
      </trkpt>
      <trkpt lat="46.72666" lon="6.53065">
        <ele>455.3215332</ele>
        <time>2011-10-02T15:07:59Z</time>
      </trkpt>
      <trkpt lat="46.72559" lon="6.53096">
        <ele>473.1060791</ele>
        <time>2011-10-02T15:10:18Z</time>
      </trkpt>
      <trkpt lat="46.7254" lon="6.53102">
        <ele>473.5866699</ele>
        <time>2011-10-02T15:10:33Z</time>
      </trkpt>
      <trkpt lat="46.72515" lon="6.53067">
        <ele>473.1060791</ele>
        <time>2011-10-02T15:11:08Z</time>
      </trkpt>
      <trkpt lat="46.72437" lon="6.53043">
        <ele>472.6253662</ele>
        <time>2011-10-02T15:12:15Z</time>
      </trkpt>
      <trkpt lat="46.72417" lon="6.53018">
        <ele>472.1446533</ele>
        <time>2011-10-02T15:12:51Z</time>
      </trkpt>
      <trkpt lat="46.72424" lon="6.53031">
        <ele>472.6253662</ele>
        <time>2011-10-02T15:13:06Z</time>
      </trkpt>
      <trkpt lat="46.72412" lon="6.53026">
        <ele>471.1833496</ele>
        <time>2011-10-02T15:13:42Z</time>
      </trkpt>
      <trkpt lat="46.72441" lon="6.53064">
        <ele>474.5479736</ele>
        <time>2011-10-02T15:14:25Z</time>
      </trkpt>
      <trkpt lat="46.72438" lon="6.53088">
        <ele>480.7966309</ele>
        <time>2011-10-02T15:14:52Z</time>
      </trkpt>
      <trkpt lat="46.72399" lon="6.53116">
        <ele>481.2772217</ele>
        <time>2011-10-02T15:15:34Z</time>
      </trkpt>
      <trkpt lat="46.7243" lon="6.53115">
        <ele>480.7966309</ele>
        <time>2011-10-02T15:17:33Z</time>
      </trkpt>
    </trkseg>
  </trk>
</gpx>